VDA67 SBRF-SAWH
Flight info
| Callsign | VDA67 |
|---|---|
| Flight time | N/A |
| Altitude | 28000 |
| Route | UDOSA UZ21 VUNOX UZ38 VUKMO/N0475F300 UZ38 UGUTU UM792 MDP/N0459F320 UW33 DONED UZ117 PADIM UT108 GRA DCT DABLI DABLI2 |
| Aircraft | IL76/H-SDFGHIM1RTUWXY/LB1 |
Departure
| Time | 2026-05-06 22:48 |
|---|---|
| Airport | Recife/Guararapes - Gilberto Freyre International Airport (SBRF) |
Arrival
| Time | N/A |
|---|---|
| Airport | Ushuaia - Malvinas Argentinas International Airport (SAWH) |
| Time | Latitude | Longitude | Altitude | Speed | Heading |
|---|---|---|---|---|---|
| 2026-05-06 22:34 | -8.12994 | -34.92434 | 55 ft | 0 kts | 341° |
| 2026-05-06 22:40 | -8.12978 | -34.92440 | 54 ft | 5 kts | 341° |
| 2026-05-06 22:40 | -8.12936 | -34.92449 | 54 ft | 3 kts | 13° |
| 2026-05-06 22:40 | -8.12905 | -34.92431 | 53 ft | 7 kts | 32° |
| 2026-05-06 22:40 | -8.12841 | -34.92403 | 53 ft | 11 kts | 14° |
| 2026-05-06 22:41 | -8.12664 | -34.92478 | 52 ft | 16 kts | 338° |
| 2026-05-06 22:41 | -8.12546 | -34.92511 | 51 ft | 18 kts | 351° |
| 2026-05-06 22:41 | -8.12421 | -34.92541 | 50 ft | 17 kts | 341° |
| 2026-05-06 22:42 | -8.12322 | -34.92575 | 51 ft | 13 kts | 340° |
| 2026-05-06 22:42 | -8.12239 | -34.92601 | 50 ft | 11 kts | 360° |
| 2026-05-06 22:42 | -8.12167 | -34.92593 | 49 ft | 9 kts | 9° |
| 2026-05-06 22:42 | -8.12112 | -34.92583 | 49 ft | 6 kts | 9° |
| 2026-05-06 22:43 | -8.12065 | -34.92576 | 49 ft | 8 kts | 9° |
| 2026-05-06 22:43 | -8.11996 | -34.92564 | 49 ft | 11 kts | 9° |
| 2026-05-06 22:43 | -8.11900 | -34.92563 | 49 ft | 15 kts | 344° |
| 2026-05-06 22:43 | -8.11787 | -34.92603 | 48 ft | 19 kts | 340° |
| 2026-05-06 22:44 | -8.11640 | -34.92657 | 46 ft | 24 kts | 340° |
| 2026-05-06 22:44 | -8.11469 | -34.92715 | 42 ft | 15 kts | 8° |
| 2026-05-06 22:44 | -8.11413 | -34.92695 | 41 ft | 4 kts | 341° |
| 2026-05-06 22:44 | -8.11407 | -34.92699 | 41 ft | 0 kts | 326° |
| 2026-05-06 22:45 | -8.11391 | -34.92717 | 41 ft | 3 kts | 281° |
| 2026-05-06 22:45 | -8.11391 | -34.92725 | 41 ft | 0 kts | 270° |
| 2026-05-06 22:45 | -8.11391 | -34.92727 | 41 ft | 2 kts | 274° |
| 2026-05-06 22:45 | -8.11390 | -34.92733 | 41 ft | 0 kts | 270° |
| 2026-05-06 22:46 | -8.11402 | -34.92730 | 41 ft | 8 kts | 168° |
| 2026-05-06 22:46 | -8.11589 | -34.92665 | 45 ft | 51 kts | 161° |
| 2026-05-06 22:47 | -8.12086 | -34.92500 | 50 ft | 96 kts | 162° |
| 2026-05-06 22:47 | -8.12845 | -34.92250 | 52 ft | 132 kts | 162° |
| 2026-05-06 22:47 | -8.13773 | -34.91933 | 340 ft | 131 kts | 161° |
| 2026-05-06 22:47 | -8.14648 | -34.91639 | 511 ft | 135 kts | 162° |
| 2026-05-06 22:48 | -8.15565 | -34.91359 | 684 ft | 139 kts | 164° |
| 2026-05-06 22:48 | -8.16590 | -34.91082 | 687 ft | 164 kts | 165° |
| 2026-05-06 22:48 | -8.17713 | -34.90763 | 1003 ft | 170 kts | 164° |
| 2026-05-06 22:48 | -8.18933 | -34.90332 | 1040 ft | 195 kts | 160° |
| 2026-05-06 22:49 | -8.20262 | -34.89813 | 1229 ft | 210 kts | 161° |
| 2026-05-06 22:49 | -8.21684 | -34.89352 | 1810 ft | 214 kts | 168° |
| 2026-05-06 22:49 | -8.23079 | -34.89575 | 2512 ft | 210 kts | 213° |
| 2026-05-06 22:49 | -8.23955 | -34.90734 | 3108 ft | 213 kts | 255° |
| 2026-05-06 22:50 | -8.24058 | -34.92213 | 3685 ft | 215 kts | 267° |
| 2026-05-06 22:50 | -8.24137 | -34.93711 | 4249 ft | 217 kts | 264° |
| 2026-05-06 22:50 | -8.24268 | -34.95213 | 4811 ft | 219 kts | 263° |
| 2026-05-06 22:50 | -8.24431 | -34.96756 | 5379 ft | 221 kts | 262° |
| 2026-05-06 22:51 | -8.24591 | -34.98148 | 5879 ft | 222 kts | 261° |
| 2026-05-06 22:51 | -8.24777 | -34.99704 | 6424 ft | 224 kts | 261° |
| 2026-05-06 22:51 | -8.24968 | -35.01264 | 6956 ft | 226 kts | 261° |
| 2026-05-06 22:51 | -8.25165 | -35.02846 | 7483 ft | 228 kts | 261° |
| 2026-05-06 22:52 | -8.25364 | -35.04449 | 8000 ft | 230 kts | 260° |
| 2026-05-06 22:52 | -8.25562 | -35.06030 | 8502 ft | 231 kts | 260° |
| 2026-05-06 22:52 | -8.25764 | -35.07641 | 8998 ft | 233 kts | 260° |
| 2026-05-06 22:52 | -8.25967 | -35.09262 | 9485 ft | 235 kts | 260° |
| 2026-05-06 22:53 | -8.26174 | -35.10915 | 9971 ft | 236 kts | 260° |
| 2026-05-06 22:53 | -8.26380 | -35.12556 | 10438 ft | 238 kts | 260° |
| 2026-05-06 22:53 | -8.26586 | -35.14205 | 10898 ft | 240 kts | 260° |
| 2026-05-06 22:53 | -8.26967 | -35.15813 | 11298 ft | 237 kts | 237° |
| 2026-05-06 22:54 | -8.27884 | -35.17185 | 11756 ft | 236 kts | 231° |
| 2026-05-06 22:54 | -8.28861 | -35.18506 | 12199 ft | 237 kts | 230° |
| 2026-05-06 22:54 | -8.29873 | -35.19818 | 12641 ft | 238 kts | 229° |
| 2026-05-06 22:54 | -8.30903 | -35.21127 | 13079 ft | 239 kts | 229° |
| 2026-05-06 22:55 | -8.31933 | -35.22424 | 13504 ft | 240 kts | 229° |
| 2026-05-06 22:55 | -8.32988 | -35.23745 | 13926 ft | 241 kts | 229° |
| 2026-05-06 22:55 | -8.34032 | -35.25051 | 14336 ft | 242 kts | 229° |
| 2026-05-06 22:55 | -8.35097 | -35.26380 | 14746 ft | 243 kts | 229° |